sensor_id;sensor_type;location;lat;lon;timestamp;P1;durP1;ratioP1;P2;durP2;ratioP2
37885;SDS011;23726;52.520;13.434;2022-08-18T00:01:00;14.80;;;12.18;;
37885;SDS011;23726;52.520;13.434;2022-08-18T00:03:25;14.38;;;12.85;;
37885;SDS011;23726;52.520;13.434;2022-08-18T00:05:53;14.60;;;12.65;;
37885;SDS011;23726;52.520;13.434;2022-08-18T00:08:19;18.58;;;16.67;;
37885;SDS011;23726;52.520;13.434;2022-08-18T00:10:44;23.15;;;18.40;;
37885;SDS011;23726;52.520;13.434;2022-08-18T00:13:10;21.25;;;19.05;;
37885;SDS011;23726;52.520;13.434;2022-08-18T00:15:36;23.25;;;19.52;;
37885;SDS011;23726;52.520;13.434;2022-08-18T00:18:01;21.02;;;18.75;;
37885;SDS011;23726;52.520;13.434;2022-08-18T00:20:27;17.98;;;16.10;;
37885;SDS011;23726;52.520;13.434;2022-08-18T00:22:53;19.48;;;16.27;;
37885;SDS011;23726;52.520;13.434;2022-08-18T00:25:21;17.95;;;16.05;;
37885;SDS011;23726;52.520;13.434;2022-08-18T00:27:48;21.38;;;16.27;;
37885;SDS011;23726;52.520;13.434;2022-08-18T00:30:15;18.55;;;16.67;;
37885;SDS011;23726;52.520;13.434;2022-08-18T00:32:44;17.75;;;15.98;;
37885;SDS011;23726;52.520;13.434;2022-08-18T00:35:14;16.45;;;14.75;;
37885;SDS011;23726;52.520;13.434;2022-08-18T00:37:46;16.92;;;15.23;;
37885;SDS011;23726;52.520;13.434;2022-08-18T00:40:16;17.05;;;15.32;;
37885;SDS011;23726;52.520;13.434;2022-08-18T00:45:13;16.90;;;14.65;;
37885;SDS011;23726;52.520;13.434;2022-08-18T00:47:42;16.25;;;13.88;;
37885;SDS011;23726;52.520;13.434;2022-08-18T00:50:08;16.23;;;13.55;;
37885;SDS011;23726;52.520;13.434;2022-08-18T00:52:36;15.65;;;14.05;;
37885;SDS011;23726;52.520;13.434;2022-08-18T00:55:02;15.82;;;14.25;;
37885;SDS011;23726;52.520;13.434;2022-08-18T00:57:29;15.70;;;13.75;;
37885;SDS011;23726;52.520;13.434;2022-08-18T00:59:57;15.15;;;13.65;;
37885;SDS011;23726;52.520;13.434;2022-08-18T01:02:34;16.20;;;13.98;;
37885;SDS011;23726;52.520;13.434;2022-08-18T01:07:39;17.25;;;14.20;;
37885;SDS011;23726;52.520;13.434;2022-08-18T01:10:09;15.10;;;13.50;;
37885;SDS011;23726;52.520;13.434;2022-08-18T01:12:39;14.65;;;13.15;;
37885;SDS011;23726;52.520;13.434;2022-08-18T01:15:05;14.82;;;13.23;;
37885;SDS011;23726;52.520;13.434;2022-08-18T01:17:31;15.13;;;13.68;;
37885;SDS011;23726;52.520;13.434;2022-08-18T01:23:19;14.95;;;13.35;;
37885;SDS011;23726;52.520;13.434;2022-08-18T01:25:48;16.95;;;13.45;;
37885;SDS011;23726;52.520;13.434;2022-08-18T01:28:31;14.95;;;13.35;;
37885;SDS011;23726;52.520;13.434;2022-08-18T01:30:59;15.07;;;13.48;;
37885;SDS011;23726;52.520;13.434;2022-08-18T01:33:30;16.05;;;14.32;;
37885;SDS011;23726;52.520;13.434;2022-08-18T01:36:11;14.80;;;13.40;;
37885;SDS011;23726;52.520;13.434;2022-08-18T01:38:40;14.27;;;12.88;;
37885;SDS011;23726;52.520;13.434;2022-08-18T01:41:07;16.58;;;13.55;;
37885;SDS011;23726;52.520;13.434;2022-08-18T01:43:34;14.98;;;13.48;;
37885;SDS011;23726;52.520;13.434;2022-08-18T01:46:00;14.65;;;13.07;;
37885;SDS011;23726;52.520;13.434;2022-08-18T01:48:28;15.50;;;13.25;;
37885;SDS011;23726;52.520;13.434;2022-08-18T01:50:58;14.27;;;12.77;;
37885;SDS011;23726;52.520;13.434;2022-08-18T01:53:24;14.82;;;13.25;;
37885;SDS011;23726;52.520;13.434;2022-08-18T01:55:51;14.82;;;13.43;;
37885;SDS011;23726;52.520;13.434;2022-08-18T01:58:17;14.15;;;12.52;;
37885;SDS011;23726;52.520;13.434;2022-08-18T02:00:43;14.68;;;13.18;;
37885;SDS011;23726;52.520;13.434;2022-08-18T02:03:10;14.93;;;13.30;;
37885;SDS011;23726;52.520;13.434;2022-08-18T02:05:39;14.63;;;13.00;;
37885;SDS011;23726;52.520;13.434;2022-08-18T02:08:08;15.97;;;13.77;;
37885;SDS011;23726;52.520;13.434;2022-08-18T02:10:36;15.18;;;13.20;;
37885;SDS011;23726;52.520;13.434;2022-08-18T02:13:03;14.68;;;13.18;;
37885;SDS011;23726;52.520;13.434;2022-08-18T02:15:29;15.07;;;13.48;;
37885;SDS011;23726;52.520;13.434;2022-08-18T02:17:56;14.93;;;13.43;;
37885;SDS011;23726;52.520;13.434;2022-08-18T02:20:21;15.13;;;13.27;;
37885;SDS011;23726;52.520;13.434;2022-08-18T02:22:48;15.35;;;13.48;;
37885;SDS011;23726;52.520;13.434;2022-08-18T02:25:14;15.02;;;12.95;;
37885;SDS011;23726;52.520;13.434;2022-08-18T02:27:41;16.17;;;14.23;;
37885;SDS011;23726;52.520;13.434;2022-08-18T02:30:10;14.73;;;13.23;;
37885;SDS011;23726;52.520;13.434;2022-08-18T02:32:38;14.65;;;13.25;;
37885;SDS011;23726;52.520;13.434;2022-08-18T02:35:04;14.63;;;13.13;;
37885;SDS011;23726;52.520;13.434;2022-08-18T02:37:31;14.15;;;12.70;;
37885;SDS011;23726;52.520;13.434;2022-08-18T02:39:57;14.98;;;13.48;;
37885;SDS011;23726;52.520;13.434;2022-08-18T02:42:22;14.18;;;12.77;;
37885;SDS011;23726;52.520;13.434;2022-08-18T02:44:49;15.65;;;13.48;;
37885;SDS011;23726;52.520;13.434;2022-08-18T02:47:17;14.90;;;13.40;;
37885;SDS011;23726;52.520;13.434;2022-08-18T02:49:44;15.40;;;13.82;;
37885;SDS011;23726;52.520;13.434;2022-08-18T02:52:10;13.20;;;11.88;;
37885;SDS011;23726;52.520;13.434;2022-08-18T02:54:36;14.57;;;13.05;;
37885;SDS011;23726;52.520;13.434;2022-08-18T02:57:06;16.85;;;13.38;;
37885;SDS011;23726;52.520;13.434;2022-08-18T02:59:33;15.52;;;13.50;;
37885;SDS011;23726;52.520;13.434;2022-08-18T03:01:58;14.48;;;12.98;;
37885;SDS011;23726;52.520;13.434;2022-08-18T03:04:25;14.75;;;13.25;;
37885;SDS011;23726;52.520;13.434;2022-08-18T03:06:53;16.02;;;13.75;;
37885;SDS011;23726;52.520;13.434;2022-08-18T03:09:19;15.55;;;13.50;;
37885;SDS011;23726;52.520;13.434;2022-08-18T03:11:45;14.45;;;12.45;;
37885;SDS011;23726;52.520;13.434;2022-08-18T03:14:12;15.27;;;13.70;;
37885;SDS011;23726;52.520;13.434;2022-08-18T03:16:39;16.05;;;13.00;;
37885;SDS011;23726;52.520;13.434;2022-08-18T03:19:09;20.00;;;13.35;;
37885;SDS011;23726;52.520;13.434;2022-08-18T03:21:35;14.85;;;13.35;;
37885;SDS011;23726;52.520;13.434;2022-08-18T03:24:02;14.57;;;13.07;;
37885;SDS011;23726;52.520;13.434;2022-08-18T03:26:29;16.40;;;13.63;;
37885;SDS011;23726;52.520;13.434;2022-08-18T03:28:56;15.00;;;13.50;;
37885;SDS011;23726;52.520;13.434;2022-08-18T03:31:24;15.23;;;13.65;;
37885;SDS011;23726;52.520;13.434;2022-08-18T03:33:51;14.27;;;12.88;;
37885;SDS011;23726;52.520;13.434;2022-08-18T03:36:20;14.32;;;12.90;;
37885;SDS011;23726;52.520;13.434;2022-08-18T03:38:48;14.85;;;13.25;;
37885;SDS011;23726;52.520;13.434;2022-08-18T03:41:17;15.82;;;13.23;;
37885;SDS011;23726;52.520;13.434;2022-08-18T03:43:44;14.60;;;13.10;;
37885;SDS011;23726;52.520;13.434;2022-08-18T03:46:11;15.65;;;13.98;;
37885;SDS011;23726;52.520;13.434;2022-08-18T03:48:39;14.32;;;12.82;;
37885;SDS011;23726;52.520;13.434;2022-08-18T03:51:07;15.23;;;13.63;;
37885;SDS011;23726;52.520;13.434;2022-08-18T03:53:39;15.73;;;14.13;;
37885;SDS011;23726;52.520;13.434;2022-08-18T03:56:08;17.05;;;13.77;;
37885;SDS011;23726;52.520;13.434;2022-08-18T03:58:42;15.55;;;13.95;;
37885;SDS011;23726;52.520;13.434;2022-08-18T04:01:09;15.52;;;13.93;;
37885;SDS011;23726;52.520;13.434;2022-08-18T04:03:40;16.25;;;14.60;;
37885;SDS011;23726;52.520;13.434;2022-08-18T04:06:07;15.15;;;13.50;;
37885;SDS011;23726;52.520;13.434;2022-08-18T04:08:32;16.10;;;13.57;;
37885;SDS011;23726;52.520;13.434;2022-08-18T04:10:58;16.80;;;14.10;;
37885;SDS011;23726;52.520;13.434;2022-08-18T04:13:24;14.75;;;13.25;;
37885;SDS011;23726;52.520;13.434;2022-08-18T04:15:51;15.25;;;13.65;;
37885;SDS011;23726;52.520;13.434;2022-08-18T04:18:16;15.90;;;14.30;;
37885;SDS011;23726;52.520;13.434;2022-08-18T04:20:43;15.20;;;13.52;;
37885;SDS011;23726;52.520;13.434;2022-08-18T04:23:08;14.80;;;13.30;;
37885;SDS011;23726;52.520;13.434;2022-08-18T04:25:34;14.68;;;13.18;;
37885;SDS011;23726;52.520;13.434;2022-08-18T04:28:00;15.63;;;13.93;;
37885;SDS011;23726;52.520;13.434;2022-08-18T04:30:26;15.73;;;14.02;;
37885;SDS011;23726;52.520;13.434;2022-08-18T04:32:53;16.67;;;14.48;;
37885;SDS011;23726;52.520;13.434;2022-08-18T04:35:19;15.20;;;13.25;;
37885;SDS011;23726;52.520;13.434;2022-08-18T04:37:46;15.65;;;14.05;;
37885;SDS011;23726;52.520;13.434;2022-08-18T04:40:12;15.63;;;13.93;;
37885;SDS011;23726;52.520;13.434;2022-08-18T04:42:38;15.23;;;13.38;;
37885;SDS011;23726;52.520;13.434;2022-08-18T04:45:04;15.60;;;13.95;;
37885;SDS011;23726;52.520;13.434;2022-08-18T04:47:30;16.13;;;14.43;;
37885;SDS011;23726;52.520;13.434;2022-08-18T04:49:56;15.63;;;13.95;;
37885;SDS011;23726;52.520;13.434;2022-08-18T04:52:22;16.13;;;14.40;;
37885;SDS011;23726;52.520;13.434;2022-08-18T04:55:08;14.95;;;13.43;;
37885;SDS011;23726;52.520;13.434;2022-08-18T04:57:34;15.77;;;14.00;;
37885;SDS011;23726;52.520;13.434;2022-08-18T04:59:59;15.63;;;13.88;;
37885;SDS011;23726;52.520;13.434;2022-08-18T05:02:25;16.65;;;14.88;;
37885;SDS011;23726;52.520;13.434;2022-08-18T05:04:51;15.27;;;13.65;;
37885;SDS011;23726;52.520;13.434;2022-08-18T05:07:18;16.95;;;14.48;;
37885;SDS011;23726;52.520;13.434;2022-08-18T05:09:46;15.67;;;14.07;;
37885;SDS011;23726;52.520;13.434;2022-08-18T05:12:12;17.10;;;14.23;;
37885;SDS011;23726;52.520;13.434;2022-08-18T05:14:40;17.00;;;15.20;;
37885;SDS011;23726;52.520;13.434;2022-08-18T05:17:08;16.50;;;14.65;;
37885;SDS011;23726;52.520;13.434;2022-08-18T05:19:34;19.40;;;15.35;;
37885;SDS011;23726;52.520;13.434;2022-08-18T05:22:00;17.27;;;14.93;;
37885;SDS011;23726;52.520;13.434;2022-08-18T05:24:26;15.88;;;14.18;;
37885;SDS011;23726;52.520;13.434;2022-08-18T05:26:54;17.55;;;14.98;;
37885;SDS011;23726;52.520;13.434;2022-08-18T05:29:20;17.60;;;14.57;;
37885;SDS011;23726;52.520;13.434;2022-08-18T05:31:47;16.92;;;14.40;;
37885;SDS011;23726;52.520;13.434;2022-08-18T05:34:13;16.70;;;14.93;;
37885;SDS011;23726;52.520;13.434;2022-08-18T05:42:17;15.80;;;14.13;;
37885;SDS011;23726;52.520;13.434;2022-08-18T05:44:49;16.20;;;14.60;;
37885;SDS011;23726;52.520;13.434;2022-08-18T05:47:16;18.45;;;15.60;;
37885;SDS011;23726;52.520;13.434;2022-08-18T05:49:50;16.35;;;14.65;;
37885;SDS011;23726;52.520;13.434;2022-08-18T05:52:19;17.30;;;15.00;;
37885;SDS011;23726;52.520;13.434;2022-08-18T05:54:47;17.05;;;15.07;;
37885;SDS011;23726;52.520;13.434;2022-08-18T06:00:37;16.55;;;14.77;;
37885;SDS011;23726;52.520;13.434;2022-08-18T06:03:18;15.82;;;14.23;;
37885;SDS011;23726;52.520;13.434;2022-08-18T06:06:12;17.25;;;15.23;;
37885;SDS011;23726;52.520;13.434;2022-08-18T06:08:44;16.52;;;14.82;;
37885;SDS011;23726;52.520;13.434;2022-08-18T06:11:16;16.92;;;15.23;;
37885;SDS011;23726;52.520;13.434;2022-08-18T06:13:42;16.55;;;14.88;;
37885;SDS011;23726;52.520;13.434;2022-08-18T06:16:13;16.17;;;14.57;;
37885;SDS011;23726;52.520;13.434;2022-08-18T06:24:34;16.58;;;14.27;;
37885;SDS011;23726;52.520;13.434;2022-08-18T06:29:57;16.45;;;14.75;;
37885;SDS011;23726;52.520;13.434;2022-08-18T06:35:18;16.67;;;14.85;;
37885;SDS011;23726;52.520;13.434;2022-08-18T06:41:18;17.23;;;15.48;;
37885;SDS011;23726;52.520;13.434;2022-08-18T06:49:07;16.88;;;15.18;;
37885;SDS011;23726;52.520;13.434;2022-08-18T06:51:35;16.50;;;14.88;;
37885;SDS011;23726;52.520;13.434;2022-08-18T06:59:14;16.85;;;15.13;;
37885;SDS011;23726;52.520;13.434;2022-08-18T07:01:44;17.80;;;15.65;;
37885;SDS011;23726;52.520;13.434;2022-08-18T07:04:32;16.63;;;14.82;;
37885;SDS011;23726;52.520;13.434;2022-08-18T07:07:15;17.20;;;15.38;;
37885;SDS011;23726;52.520;13.434;2022-08-18T07:09:44;17.17;;;15.38;;
37885;SDS011;23726;52.520;13.434;2022-08-18T07:12:11;17.58;;;15.73;;
37885;SDS011;23726;52.520;13.434;2022-08-18T07:14:50;17.38;;;15.57;;
37885;SDS011;23726;52.520;13.434;2022-08-18T07:17:28;16.80;;;15.05;;
37885;SDS011;23726;52.520;13.434;2022-08-18T07:20:07;16.75;;;14.95;;
37885;SDS011;23726;52.520;13.434;2022-08-18T07:25:23;16.00;;;14.35;;
37885;SDS011;23726;52.520;13.434;2022-08-18T07:27:58;17.02;;;15.23;;
37885;SDS011;23726;52.520;13.434;2022-08-18T07:30:27;17.17;;;15.18;;
37885;SDS011;23726;52.520;13.434;2022-08-18T07:35:48;17.20;;;15.45;;
37885;SDS011;23726;52.520;13.434;2022-08-18T07:38:28;16.42;;;14.35;;
37885;SDS011;23726;52.520;13.434;2022-08-18T07:43:58;17.55;;;15.32;;
37885;SDS011;23726;52.520;13.434;2022-08-18T07:49:31;17.30;;;15.50;;
37885;SDS011;23726;52.520;13.434;2022-08-18T07:52:03;16.30;;;14.68;;
37885;SDS011;23726;52.520;13.434;2022-08-18T07:54:34;17.13;;;15.32;;
37885;SDS011;23726;52.520;13.434;2022-08-18T07:57:22;15.52;;;13.93;;
37885;SDS011;23726;52.520;13.434;2022-08-18T08:00:04;16.20;;;14.60;;
37885;SDS011;23726;52.520;13.434;2022-08-18T08:02:48;16.85;;;15.15;;
37885;SDS011;23726;52.520;13.434;2022-08-18T08:05:41;15.82;;;14.13;;
37885;SDS011;23726;52.520;13.434;2022-08-18T08:08:24;15.95;;;14.35;;
37885;SDS011;23726;52.520;13.434;2022-08-18T08:11:07;17.30;;;15.48;;
37885;SDS011;23726;52.520;13.434;2022-08-18T08:19:32;17.30;;;15.50;;
37885;SDS011;23726;52.520;13.434;2022-08-18T08:22:20;16.35;;;14.65;;
37885;SDS011;23726;52.520;13.434;2022-08-18T08:30:15;16.02;;;14.43;;
37885;SDS011;23726;52.520;13.434;2022-08-18T08:35:45;16.67;;;14.95;;
37885;SDS011;23726;52.520;13.434;2022-08-18T08:38:18;16.73;;;15.05;;
37885;SDS011;23726;52.520;13.434;2022-08-18T08:40:53;20.67;;;14.93;;
37885;SDS011;23726;52.520;13.434;2022-08-18T08:43:37;18.17;;;15.23;;
37885;SDS011;23726;52.520;13.434;2022-08-18T08:46:21;20.27;;;14.93;;
37885;SDS011;23726;52.520;13.434;2022-08-18T08:48:55;19.60;;;15.25;;
37885;SDS011;23726;52.520;13.434;2022-08-18T08:51:34;16.42;;;14.57;;
37885;SDS011;23726;52.520;13.434;2022-08-18T08:54:12;17.33;;;15.00;;
37885;SDS011;23726;52.520;13.434;2022-08-18T08:56:43;18.00;;;14.98;;
37885;SDS011;23726;52.520;13.434;2022-08-18T08:59:14;19.05;;;14.95;;
37885;SDS011;23726;52.520;13.434;2022-08-18T09:04:32;17.33;;;14.90;;
37885;SDS011;23726;52.520;13.434;2022-08-18T09:21:29;16.55;;;14.80;;
37885;SDS011;23726;52.520;13.434;2022-08-18T09:24:13;16.40;;;14.63;;
37885;SDS011;23726;52.520;13.434;2022-08-18T09:29:47;16.17;;;14.57;;
37885;SDS011;23726;52.520;13.434;2022-08-18T09:37:48;16.98;;;14.73;;
37885;SDS011;23726;52.520;13.434;2022-08-18T09:40:46;16.27;;;14.15;;
37885;SDS011;23726;52.520;13.434;2022-08-18T09:43:35;18.05;;;14.60;;
37885;SDS011;23726;52.520;13.434;2022-08-18T09:46:03;15.88;;;13.57;;
37885;SDS011;23726;52.520;13.434;2022-08-18T09:48:31;17.58;;;14.98;;
37885;SDS011;23726;52.520;13.434;2022-08-18T09:51:15;19.67;;;15.25;;
37885;SDS011;23726;52.520;13.434;2022-08-18T10:01:56;19.55;;;14.98;;
37885;SDS011;23726;52.520;13.434;2022-08-18T10:07:12;17.35;;;14.65;;
37885;SDS011;23726;52.520;13.434;2022-08-18T10:18:12;88.55;;;34.53;;
37885;SDS011;23726;52.520;13.434;2022-08-18T10:20:51;184.20;;;50.00;;
37885;SDS011;23726;52.520;13.434;2022-08-18T10:31:27;274.50;;;72.65;;
37885;SDS011;23726;52.520;13.434;2022-08-18T10:34:07;277.52;;;72.43;;
37885;SDS011;23726;52.520;13.434;2022-08-18T10:36:44;285.73;;;74.85;;
37885;SDS011;23726;52.520;13.434;2022-08-18T10:39:26;242.30;;;70.13;;
37885;SDS011;23726;52.520;13.434;2022-08-18T10:42:17;247.52;;;70.25;;
37885;SDS011;23726;52.520;13.434;2022-08-18T10:44:54;228.48;;;68.38;;
37885;SDS011;23726;52.520;13.434;2022-08-18T10:47:31;244.75;;;67.53;;
37885;SDS011;23726;52.520;13.434;2022-08-18T10:49:57;240.95;;;68.43;;
37885;SDS011;23726;52.520;13.434;2022-08-18T10:58:09;212.40;;;62.15;;
37885;SDS011;23726;52.520;13.434;2022-08-18T11:00:55;213.48;;;62.13;;
37885;SDS011;23726;52.520;13.434;2022-08-18T11:04:44;208.10;;;59.65;;
37885;SDS011;23726;52.520;13.434;2022-08-18T11:06:49;203.20;;;58.00;;
37885;SDS011;23726;52.520;13.434;2022-08-18T11:09:24;182.60;;;57.33;;
37885;SDS011;23726;52.520;13.434;2022-08-18T11:11:53;185.02;;;58.03;;
37885;SDS011;23726;52.520;13.434;2022-08-18T11:17:15;166.57;;;56.30;;
37885;SDS011;23726;52.520;13.434;2022-08-18T11:19:47;180.65;;;55.92;;
37885;SDS011;23726;52.520;13.434;2022-08-18T11:22:26;174.88;;;55.30;;
37885;SDS011;23726;52.520;13.434;2022-08-18T11:24:56;165.57;;;53.70;;
37885;SDS011;23726;52.520;13.434;2022-08-18T11:27:26;161.95;;;52.95;;
37885;SDS011;23726;52.520;13.434;2022-08-18T11:29:57;157.63;;;51.22;;
37885;SDS011;23726;52.520;13.434;2022-08-18T11:43:27;148.63;;;51.22;;
37885;SDS011;23726;52.520;13.434;2022-08-18T11:48:47;144.35;;;46.90;;
37885;SDS011;23726;52.520;13.434;2022-08-18T11:58:46;129.57;;;45.67;;
37885;SDS011;23726;52.520;13.434;2022-08-18T12:14:55;120.05;;;44.35;;
37885;SDS011;23726;52.520;13.434;2022-08-18T12:17:21;112.05;;;43.17;;
37885;SDS011;23726;52.520;13.434;2022-08-18T12:19:47;112.65;;;42.63;;
37885;SDS011;23726;52.520;13.434;2022-08-18T12:22:18;109.30;;;42.38;;
37885;SDS011;23726;52.520;13.434;2022-08-18T12:24:45;112.15;;;42.92;;
37885;SDS011;23726;52.520;13.434;2022-08-18T12:27:15;107.38;;;43.22;;
37885;SDS011;23726;52.520;13.434;2022-08-18T12:29:46;104.03;;;41.00;;
37885;SDS011;23726;52.520;13.434;2022-08-18T12:32:12;108.22;;;40.95;;
37885;SDS011;23726;52.520;13.434;2022-08-18T12:34:38;101.28;;;41.10;;
37885;SDS011;23726;52.520;13.434;2022-08-18T12:37:04;93.18;;;39.58;;
37885;SDS011;23726;52.520;13.434;2022-08-18T12:39:34;109.32;;;41.58;;
37885;SDS011;23726;52.520;13.434;2022-08-18T12:42:01;104.00;;;40.78;;
37885;SDS011;23726;52.520;13.434;2022-08-18T12:44:27;94.07;;;40.25;;
37885;SDS011;23726;52.520;13.434;2022-08-18T12:46:53;88.70;;;37.15;;
37885;SDS011;23726;52.520;13.434;2022-08-18T12:49:20;87.97;;;40.15;;
37885;SDS011;23726;52.520;13.434;2022-08-18T12:51:49;85.50;;;37.95;;
37885;SDS011;23726;52.520;13.434;2022-08-18T12:54:15;88.10;;;38.50;;
37885;SDS011;23726;52.520;13.434;2022-08-18T12:56:42;91.28;;;37.63;;
37885;SDS011;23726;52.520;13.434;2022-08-18T12:59:12;95.93;;;38.53;;
37885;SDS011;23726;52.520;13.434;2022-08-18T13:01:38;83.10;;;37.08;;
37885;SDS011;23726;52.520;13.434;2022-08-18T13:04:05;85.75;;;38.05;;
37885;SDS011;23726;52.520;13.434;2022-08-18T13:06:32;82.18;;;36.60;;
37885;SDS011;23726;52.520;13.434;2022-08-18T13:09:01;83.75;;;37.20;;
37885;SDS011;23726;52.520;13.434;2022-08-18T13:11:26;81.72;;;35.42;;
37885;SDS011;23726;52.520;13.434;2022-08-18T13:13:52;78.68;;;35.30;;
37885;SDS011;23726;52.520;13.434;2022-08-18T13:16:19;80.68;;;35.92;;
37885;SDS011;23726;52.520;13.434;2022-08-18T13:18:44;82.93;;;34.53;;
37885;SDS011;23726;52.520;13.434;2022-08-18T13:21:12;78.28;;;33.90;;
37885;SDS011;23726;52.520;13.434;2022-08-18T13:23:39;75.22;;;34.85;;
37885;SDS011;23726;52.520;13.434;2022-08-18T13:26:08;77.55;;;34.15;;
37885;SDS011;23726;52.520;13.434;2022-08-18T13:28:40;75.72;;;33.40;;
37885;SDS011;23726;52.520;13.434;2022-08-18T13:31:06;71.45;;;32.92;;
37885;SDS011;23726;52.520;13.434;2022-08-18T13:33:32;75.82;;;33.22;;
37885;SDS011;23726;52.520;13.434;2022-08-18T13:35:58;75.13;;;33.38;;
37885;SDS011;23726;52.520;13.434;2022-08-18T13:38:24;72.88;;;33.25;;
37885;SDS011;23726;52.520;13.434;2022-08-18T13:40:50;77.35;;;33.28;;
37885;SDS011;23726;52.520;13.434;2022-08-18T13:43:18;74.53;;;33.63;;
37885;SDS011;23726;52.520;13.434;2022-08-18T13:45:48;70.70;;;32.80;;
37885;SDS011;23726;52.520;13.434;2022-08-18T13:48:14;67.88;;;32.45;;
37885;SDS011;23726;52.520;13.434;2022-08-18T13:50:41;68.07;;;31.77;;
37885;SDS011;23726;52.520;13.434;2022-08-18T13:53:08;65.53;;;30.63;;
37885;SDS011;23726;52.520;13.434;2022-08-18T13:55:40;69.80;;;32.47;;
37885;SDS011;23726;52.520;13.434;2022-08-18T13:58:05;65.28;;;30.48;;
37885;SDS011;23726;52.520;13.434;2022-08-18T14:00:32;63.03;;;31.10;;
37885;SDS011;23726;52.520;13.434;2022-08-18T14:02:58;62.83;;;31.13;;
37885;SDS011;23726;52.520;13.434;2022-08-18T14:05:24;61.83;;;30.23;;
37885;SDS011;23726;52.520;13.434;2022-08-18T14:07:50;67.68;;;30.75;;
37885;SDS011;23726;52.520;13.434;2022-08-18T14:10:16;61.08;;;30.23;;
37885;SDS011;23726;52.520;13.434;2022-08-18T14:12:42;66.47;;;29.77;;
37885;SDS011;23726;52.520;13.434;2022-08-18T14:15:11;61.95;;;29.23;;
37885;SDS011;23726;52.520;13.434;2022-08-18T14:17:39;63.38;;;30.90;;
37885;SDS011;23726;52.520;13.434;2022-08-18T14:20:05;57.85;;;29.88;;
37885;SDS011;23726;52.520;13.434;2022-08-18T14:22:56;66.20;;;30.33;;
37885;SDS011;23726;52.520;13.434;2022-08-18T14:25:42;59.97;;;29.00;;
37885;SDS011;23726;52.520;13.434;2022-08-18T14:28:27;56.38;;;29.23;;
37885;SDS011;23726;52.520;13.434;2022-08-18T14:30:54;53.10;;;29.58;;
37885;SDS011;23726;52.520;13.434;2022-08-18T14:33:22;53.50;;;27.38;;
37885;SDS011;23726;52.520;13.434;2022-08-18T14:35:50;57.25;;;28.55;;
37885;SDS011;23726;52.520;13.434;2022-08-18T14:38:16;53.45;;;28.05;;
37885;SDS011;23726;52.520;13.434;2022-08-18T14:40:44;56.35;;;28.77;;
37885;SDS011;23726;52.520;13.434;2022-08-18T14:43:11;52.80;;;27.15;;
37885;SDS011;23726;52.520;13.434;2022-08-18T14:45:38;54.08;;;27.08;;
37885;SDS011;23726;52.520;13.434;2022-08-18T14:48:11;51.65;;;27.08;;
37885;SDS011;23726;52.520;13.434;2022-08-18T14:50:39;50.53;;;27.38;;
37885;SDS011;23726;52.520;13.434;2022-08-18T14:53:06;49.00;;;27.00;;
37885;SDS011;23726;52.520;13.434;2022-08-18T14:55:33;50.58;;;27.02;;
37885;SDS011;23726;52.520;13.434;2022-08-18T14:57:58;49.00;;;25.38;;
37885;SDS011;23726;52.520;13.434;2022-08-18T15:00:25;50.22;;;26.30;;
37885;SDS011;23726;52.520;13.434;2022-08-18T15:02:52;50.17;;;26.63;;
37885;SDS011;23726;52.520;13.434;2022-08-18T15:05:17;49.20;;;25.77;;
37885;SDS011;23726;52.520;13.434;2022-08-18T15:07:43;48.63;;;25.80;;
37885;SDS011;23726;52.520;13.434;2022-08-18T15:10:10;49.15;;;25.00;;
37885;SDS011;23726;52.520;13.434;2022-08-18T15:12:39;49.22;;;25.55;;
37885;SDS011;23726;52.520;13.434;2022-08-18T15:15:06;47.78;;;24.50;;
37885;SDS011;23726;52.520;13.434;2022-08-18T15:20:03;43.38;;;24.02;;
37885;SDS011;23726;52.520;13.434;2022-08-18T15:22:29;47.45;;;24.30;;
37885;SDS011;23726;52.520;13.434;2022-08-18T15:25:14;49.00;;;25.27;;
37885;SDS011;23726;52.520;13.434;2022-08-18T15:27:58;46.38;;;25.92;;
37885;SDS011;23726;52.520;13.434;2022-08-18T15:30:24;42.78;;;23.50;;
37885;SDS011;23726;52.520;13.434;2022-08-18T15:32:51;43.50;;;24.45;;
37885;SDS011;23726;52.520;13.434;2022-08-18T15:35:16;45.42;;;24.23;;
37885;SDS011;23726;52.520;13.434;2022-08-18T15:37:43;37.58;;;22.98;;
37885;SDS011;23726;52.520;13.434;2022-08-18T15:40:17;42.28;;;24.63;;
37885;SDS011;23726;52.520;13.434;2022-08-18T15:42:49;41.05;;;23.75;;
37885;SDS011;23726;52.520;13.434;2022-08-18T15:45:17;39.25;;;24.17;;
37885;SDS011;23726;52.520;13.434;2022-08-18T15:47:45;39.55;;;23.48;;
37885;SDS011;23726;52.520;13.434;2022-08-18T15:50:12;45.55;;;25.33;;
37885;SDS011;23726;52.520;13.434;2022-08-18T15:55:17;44.50;;;24.88;;
37885;SDS011;23726;52.520;13.434;2022-08-18T15:57:45;37.95;;;22.80;;
37885;SDS011;23726;52.520;13.434;2022-08-18T16:00:12;36.78;;;22.23;;
37885;SDS011;23726;52.520;13.434;2022-08-18T16:02:41;39.75;;;22.95;;
37885;SDS011;23726;52.520;13.434;2022-08-18T16:05:07;36.83;;;21.55;;
37885;SDS011;23726;52.520;13.434;2022-08-18T16:07:33;37.38;;;22.48;;
37885;SDS011;23726;52.520;13.434;2022-08-18T16:09:59;37.90;;;22.38;;
37885;SDS011;23726;52.520;13.434;2022-08-18T16:12:26;38.97;;;23.15;;
37885;SDS011;23726;52.520;13.434;2022-08-18T16:14:52;32.83;;;21.10;;
37885;SDS011;23726;52.520;13.434;2022-08-18T16:17:18;37.03;;;21.67;;
37885;SDS011;23726;52.520;13.434;2022-08-18T16:19:45;35.33;;;21.55;;
37885;SDS011;23726;52.520;13.434;2022-08-18T16:22:12;36.08;;;21.33;;
37885;SDS011;23726;52.520;13.434;2022-08-18T16:24:37;33.03;;;20.75;;
37885;SDS011;23726;52.520;13.434;2022-08-18T16:27:03;32.33;;;20.73;;
37885;SDS011;23726;52.520;13.434;2022-08-18T16:29:30;37.80;;;22.90;;
37885;SDS011;23726;52.520;13.434;2022-08-18T16:31:56;34.00;;;21.35;;
37885;SDS011;23726;52.520;13.434;2022-08-18T16:34:22;35.05;;;21.00;;
37885;SDS011;23726;52.520;13.434;2022-08-18T16:36:49;35.72;;;21.80;;
37885;SDS011;23726;52.520;13.434;2022-08-18T16:39:14;32.03;;;20.25;;
37885;SDS011;23726;52.520;13.434;2022-08-18T16:41:43;35.53;;;21.00;;
37885;SDS011;23726;52.520;13.434;2022-08-18T16:44:08;34.17;;;21.55;;
37885;SDS011;23726;52.520;13.434;2022-08-18T16:46:35;33.60;;;20.20;;
37885;SDS011;23726;52.520;13.434;2022-08-18T16:49:00;33.33;;;21.20;;
37885;SDS011;23726;52.520;13.434;2022-08-18T16:51:30;30.45;;;19.33;;
37885;SDS011;23726;52.520;13.434;2022-08-18T16:53:55;30.80;;;20.52;;
37885;SDS011;23726;52.520;13.434;2022-08-18T16:56:23;32.97;;;20.48;;
37885;SDS011;23726;52.520;13.434;2022-08-18T16:58:51;33.67;;;20.67;;
37885;SDS011;23726;52.520;13.434;2022-08-18T17:01:36;33.70;;;20.58;;
37885;SDS011;23726;52.520;13.434;2022-08-18T17:04:22;30.58;;;19.17;;
37885;SDS011;23726;52.520;13.434;2022-08-18T17:06:52;30.95;;;20.40;;
37885;SDS011;23726;52.520;13.434;2022-08-18T17:09:19;32.55;;;20.15;;
37885;SDS011;23726;52.520;13.434;2022-08-18T17:11:45;30.48;;;19.45;;
37885;SDS011;23726;52.520;13.434;2022-08-18T17:14:11;28.98;;;19.40;;